sensor_id;sensor_type;location;lat;lon;timestamp;temperature;humidity
57843;DHT22;43673;51.058;3.734;2023-02-28T14:16:55;6.60;68.50
57843;DHT22;43673;51.058;3.734;2023-02-28T14:19:28;6.60;69.30
57843;DHT22;43673;51.058;3.734;2023-02-28T14:38:38;6.60;68.90
57843;DHT22;43673;51.058;3.734;2023-02-28T14:41:28;6.60;69.20
57843;DHT22;43673;51.058;3.734;2023-02-28T14:43:59;6.60;70.20
57843;DHT22;43673;51.058;3.734;2023-02-28T14:46:37;6.50;70.30
57843;DHT22;43673;51.058;3.734;2023-02-28T14:49:05;6.70;69.90
57843;DHT22;43673;51.058;3.734;2023-02-28T14:51:33;6.70;69.80
57843;DHT22;43673;51.058;3.734;2023-02-28T14:54:01;6.60;69.40
57843;DHT22;43673;51.058;3.734;2023-02-28T14:56:37;6.50;69.70
57843;DHT22;43673;51.058;3.734;2023-02-28T14:59:03;6.50;70.20
57843;DHT22;43673;51.058;3.734;2023-02-28T15:01:30;6.40;70.60
57843;DHT22;43673;51.058;3.734;2023-02-28T15:04:00;6.40;70.40
57843;DHT22;43673;51.058;3.734;2023-02-28T15:06:30;6.40;70.70
57843;DHT22;43673;51.058;3.734;2023-02-28T15:09:15;6.40;71.30
57843;DHT22;43673;51.058;3.734;2023-02-28T15:11:44;6.40;70.60
57843;DHT22;43673;51.058;3.734;2023-02-28T15:14:19;6.40;71.10
57843;DHT22;43673;51.058;3.734;2023-02-28T15:16:49;6.40;70.90
57843;DHT22;43673;51.058;3.734;2023-02-28T15:21:48;6.40;71.20
57843;DHT22;43673;51.058;3.734;2023-02-28T15:26:43;6.50;71.60
57843;DHT22;43673;51.058;3.734;2023-02-28T15:29:25;6.50;71.50
57843;DHT22;43673;51.058;3.734;2023-02-28T15:32:03;6.50;71.70
57843;DHT22;43673;51.058;3.734;2023-02-28T15:34:36;6.40;72.00
57843;DHT22;43673;51.058;3.734;2023-02-28T15:39:52;6.50;73.20
57843;DHT22;43673;51.058;3.734;2023-02-28T15:42:22;6.50;72.30
57843;DHT22;43673;51.058;3.734;2023-02-28T15:44:48;6.50;72.70
57843;DHT22;43673;51.058;3.734;2023-02-28T15:47:23;6.50;73.20
57843;DHT22;43673;51.058;3.734;2023-02-28T15:49:56;6.40;73.60
57843;DHT22;43673;51.058;3.734;2023-02-28T15:52:41;6.50;74.00
57843;DHT22;43673;51.058;3.734;2023-02-28T15:55:17;6.40;74.30
57843;DHT22;43673;51.058;3.734;2023-02-28T15:57:44;6.50;73.90
57843;DHT22;43673;51.058;3.734;2023-02-28T16:00:23;6.30;74.30
57843;DHT22;43673;51.058;3.734;2023-02-28T16:02:50;6.40;74.70
57843;DHT22;43673;51.058;3.734;2023-02-28T16:05:30;6.30;74.70
57843;DHT22;43673;51.058;3.734;2023-02-28T16:08:17;6.30;74.50
57843;DHT22;43673;51.058;3.734;2023-02-28T16:10:43;6.40;75.00
57843;DHT22;43673;51.058;3.734;2023-02-28T16:13:11;6.30;74.70
57843;DHT22;43673;51.058;3.734;2023-02-28T16:15:42;6.10;75.40
57843;DHT22;43673;51.058;3.734;2023-02-28T16:18:11;6.10;75.70
57843;DHT22;43673;51.058;3.734;2023-02-28T16:20:37;6.10;76.00
57843;DHT22;43673;51.058;3.734;2023-02-28T16:23:03;6.10;76.90
57843;DHT22;43673;51.058;3.734;2023-02-28T16:25:38;6.00;77.10
57843;DHT22;43673;51.058;3.734;2023-02-28T16:28:11;6.10;77.60
57843;DHT22;43673;51.058;3.734;2023-02-28T16:30:38;6.00;78.00
57843;DHT22;43673;51.058;3.734;2023-02-28T16:33:04;5.80;78.20
57843;DHT22;43673;51.058;3.734;2023-02-28T16:35:30;5.90;78.90
57843;DHT22;43673;51.058;3.734;2023-02-28T16:37:55;5.90;78.90
57843;DHT22;43673;51.058;3.734;2023-02-28T16:40:24;5.90;78.50
57843;DHT22;43673;51.058;3.734;2023-02-28T16:42:53;6.00;78.40
57843;DHT22;43673;51.058;3.734;2023-02-28T16:45:26;5.70;77.90
57843;DHT22;43673;51.058;3.734;2023-02-28T16:47:55;5.90;78.30
57843;DHT22;43673;51.058;3.734;2023-02-28T16:50:26;5.90;78.60
57843;DHT22;43673;51.058;3.734;2023-02-28T16:55:39;5.80;79.10
57843;DHT22;43673;51.058;3.734;2023-02-28T16:58:05;5.80;79.50
57843;DHT22;43673;51.058;3.734;2023-02-28T17:00:32;5.80;79.40
57843;DHT22;43673;51.058;3.734;2023-02-28T17:02:58;5.80;79.50
57843;DHT22;43673;51.058;3.734;2023-02-28T17:05:36;5.70;80.10
57843;DHT22;43673;51.058;3.734;2023-02-28T17:08:03;5.70;80.50
57843;DHT22;43673;51.058;3.734;2023-02-28T17:10:29;5.70;81.30
57843;DHT22;43673;51.058;3.734;2023-02-28T17:12:55;5.60;81.60
57843;DHT22;43673;51.058;3.734;2023-02-28T17:15:22;5.70;81.80
57843;DHT22;43673;51.058;3.734;2023-02-28T17:20:20;5.60;82.40
57843;DHT22;43673;51.058;3.734;2023-02-28T17:22:49;5.60;82.60
57843;DHT22;43673;51.058;3.734;2023-02-28T17:25:16;5.60;82.40
57843;DHT22;43673;51.058;3.734;2023-02-28T17:27:43;5.50;82.80
57843;DHT22;43673;51.058;3.734;2023-02-28T17:30:19;5.60;83.30
57843;DHT22;43673;51.058;3.734;2023-02-28T17:32:46;5.50;83.50
57843;DHT22;43673;51.058;3.734;2023-02-28T17:35:12;5.40;83.80
57843;DHT22;43673;51.058;3.734;2023-02-28T17:37:38;5.40;84.40
57843;DHT22;43673;51.058;3.734;2023-02-28T17:40:04;5.50;84.80
57843;DHT22;43673;51.058;3.734;2023-02-28T17:42:32;5.30;85.00
57843;DHT22;43673;51.058;3.734;2023-02-28T17:44:59;5.40;86.00
57843;DHT22;43673;51.058;3.734;2023-02-28T17:47:26;5.30;85.80
57843;DHT22;43673;51.058;3.734;2023-02-28T17:49:52;5.40;86.40
57843;DHT22;43673;51.058;3.734;2023-02-28T17:52:17;5.10;86.50
57843;DHT22;43673;51.058;3.734;2023-02-28T17:54:43;5.20;86.80
57843;DHT22;43673;51.058;3.734;2023-02-28T17:57:14;5.20;87.10
57843;DHT22;43673;51.058;3.734;2023-02-28T17:59:41;5.20;87.50
57843;DHT22;43673;51.058;3.734;2023-02-28T18:02:10;5.30;87.30
57843;DHT22;43673;51.058;3.734;2023-02-28T18:04:36;5.20;87.60
57843;DHT22;43673;51.058;3.734;2023-02-28T18:07:03;5.00;87.70
57843;DHT22;43673;51.058;3.734;2023-02-28T18:09:29;5.00;88.20
57843;DHT22;43673;51.058;3.734;2023-02-28T18:11:55;5.00;88.30
57843;DHT22;43673;51.058;3.734;2023-02-28T18:14:24;5.00;88.60
57843;DHT22;43673;51.058;3.734;2023-02-28T18:16:52;5.00;88.90
57843;DHT22;43673;51.058;3.734;2023-02-28T18:19:18;5.00;89.60
57843;DHT22;43673;51.058;3.734;2023-02-28T18:21:49;4.90;89.80
57843;DHT22;43673;51.058;3.734;2023-02-28T18:24:16;4.80;90.00
57843;DHT22;43673;51.058;3.734;2023-02-28T18:26:42;4.90;90.30
57843;DHT22;43673;51.058;3.734;2023-02-28T18:29:19;4.60;90.50
57843;DHT22;43673;51.058;3.734;2023-02-28T18:31:46;4.70;90.80
57843;DHT22;43673;51.058;3.734;2023-02-28T18:34:12;4.60;91.10
57843;DHT22;43673;51.058;3.734;2023-02-28T18:36:39;4.50;91.50
57843;DHT22;43673;51.058;3.734;2023-02-28T18:39:07;4.50;91.70
57843;DHT22;43673;51.058;3.734;2023-02-28T18:41:33;4.50;91.90
57843;DHT22;43673;51.058;3.734;2023-02-28T18:44:00;4.50;91.80
57843;DHT22;43673;51.058;3.734;2023-02-28T18:46:29;4.50;91.80
57843;DHT22;43673;51.058;3.734;2023-02-28T18:48:54;4.50;91.90
57843;DHT22;43673;51.058;3.734;2023-02-28T18:51:24;4.40;91.90
57843;DHT22;43673;51.058;3.734;2023-02-28T18:53:56;4.40;92.00
57843;DHT22;43673;51.058;3.734;2023-02-28T18:56:24;4.60;92.20
57843;DHT22;43673;51.058;3.734;2023-02-28T18:58:51;4.40;92.10
57843;DHT22;43673;51.058;3.734;2023-02-28T19:01:23;4.40;92.20
57843;DHT22;43673;51.058;3.734;2023-02-28T19:03:51;4.40;92.30
57843;DHT22;43673;51.058;3.734;2023-02-28T19:06:18;4.30;92.40
57843;DHT22;43673;51.058;3.734;2023-02-28T19:08:44;4.40;92.50
57843;DHT22;43673;51.058;3.734;2023-02-28T19:11:16;4.40;92.50
57843;DHT22;43673;51.058;3.734;2023-02-28T19:13:44;4.40;92.50
57843;DHT22;43673;51.058;3.734;2023-02-28T19:16:11;4.40;92.60
57843;DHT22;43673;51.058;3.734;2023-02-28T19:18:37;4.30;92.70
57843;DHT22;43673;51.058;3.734;2023-02-28T19:21:06;4.30;92.90
57843;DHT22;43673;51.058;3.734;2023-02-28T19:23:35;4.40;93.00
57843;DHT22;43673;51.058;3.734;2023-02-28T19:26:10;4.30;92.90
57843;DHT22;43673;51.058;3.734;2023-02-28T19:28:36;4.30;92.90
57843;DHT22;43673;51.058;3.734;2023-02-28T19:31:04;4.30;93.00
57843;DHT22;43673;51.058;3.734;2023-02-28T19:33:38;4.30;93.30
57843;DHT22;43673;51.058;3.734;2023-02-28T19:36:04;4.30;93.10
57843;DHT22;43673;51.058;3.734;2023-02-28T19:38:29;4.20;93.00
57843;DHT22;43673;51.058;3.734;2023-02-28T19:41:10;4.20;93.10
57843;DHT22;43673;51.058;3.734;2023-02-28T19:43:38;4.20;93.20
57843;DHT22;43673;51.058;3.734;2023-02-28T19:46:08;4.00;93.30
57843;DHT22;43673;51.058;3.734;2023-02-28T19:48:34;4.00;93.70
57843;DHT22;43673;51.058;3.734;2023-02-28T19:51:03;4.00;93.90
57843;DHT22;43673;51.058;3.734;2023-02-28T19:53:30;4.00;93.90
57843;DHT22;43673;51.058;3.734;2023-02-28T19:55:56;4.20;94.10
57843;DHT22;43673;51.058;3.734;2023-02-28T19:58:23;3.90;94.20
57843;DHT22;43673;51.058;3.734;2023-02-28T20:00:49;3.90;94.30
57843;DHT22;43673;51.058;3.734;2023-02-28T20:03:15;3.90;94.60
57843;DHT22;43673;51.058;3.734;2023-02-28T20:05:44;4.00;94.80
57843;DHT22;43673;51.058;3.734;2023-02-28T20:08:11;3.90;94.90
57843;DHT22;43673;51.058;3.734;2023-02-28T20:10:37;3.90;95.00
57843;DHT22;43673;51.058;3.734;2023-02-28T20:13:03;3.90;95.00
57843;DHT22;43673;51.058;3.734;2023-02-28T20:15:31;3.90;94.90
57843;DHT22;43673;51.058;3.734;2023-02-28T20:17:57;3.90;95.00
57843;DHT22;43673;51.058;3.734;2023-02-28T20:20:25;3.90;95.10
57843;DHT22;43673;51.058;3.734;2023-02-28T20:22:53;4.00;95.20
57843;DHT22;43673;51.058;3.734;2023-02-28T20:25:19;3.90;95.10
57843;DHT22;43673;51.058;3.734;2023-02-28T20:27:45;3.90;95.10
57843;DHT22;43673;51.058;3.734;2023-02-28T20:30:11;4.00;95.00
57843;DHT22;43673;51.058;3.734;2023-02-28T20:32:39;4.00;94.90
57843;DHT22;43673;51.058;3.734;2023-02-28T20:35:06;4.00;95.10
57843;DHT22;43673;51.058;3.734;2023-02-28T20:37:34;3.90;95.10
57843;DHT22;43673;51.058;3.734;2023-02-28T20:40:00;3.80;95.30
57843;DHT22;43673;51.058;3.734;2023-02-28T20:42:29;3.80;95.50
57843;DHT22;43673;51.058;3.734;2023-02-28T20:44:54;3.80;95.50
57843;DHT22;43673;51.058;3.734;2023-02-28T20:47:20;3.70;95.60
57843;DHT22;43673;51.058;3.734;2023-02-28T20:49:46;3.70;95.60
57843;DHT22;43673;51.058;3.734;2023-02-28T20:52:11;3.90;95.60
57843;DHT22;43673;51.058;3.734;2023-02-28T20:54:38;3.70;95.70
57843;DHT22;43673;51.058;3.734;2023-02-28T20:57:04;3.70;95.70
57843;DHT22;43673;51.058;3.734;2023-02-28T20:59:30;3.70;95.80
57843;DHT22;43673;51.058;3.734;2023-02-28T21:01:55;3.70;95.90
57843;DHT22;43673;51.058;3.734;2023-02-28T21:04:22;3.70;96.00
57843;DHT22;43673;51.058;3.734;2023-02-28T21:06:48;3.60;96.00
57843;DHT22;43673;51.058;3.734;2023-02-28T21:09:16;3.60;96.20
57843;DHT22;43673;51.058;3.734;2023-02-28T21:11:42;3.60;96.20
57843;DHT22;43673;51.058;3.734;2023-02-28T21:14:12;3.60;96.20
57843;DHT22;43673;51.058;3.734;2023-02-28T21:16:39;3.60;96.30
57843;DHT22;43673;51.058;3.734;2023-02-28T21:19:05;3.70;96.40
57843;DHT22;43673;51.058;3.734;2023-02-28T21:21:33;3.60;96.40
57843;DHT22;43673;51.058;3.734;2023-02-28T21:23:59;3.70;96.30
57843;DHT22;43673;51.058;3.734;2023-02-28T21:26:27;3.60;96.50
57843;DHT22;43673;51.058;3.734;2023-02-28T21:28:58;3.70;96.70
57843;DHT22;43673;51.058;3.734;2023-02-28T21:31:25;3.60;96.70
57843;DHT22;43673;51.058;3.734;2023-02-28T21:33:54;3.70;96.60
57843;DHT22;43673;51.058;3.734;2023-02-28T21:36:22;3.70;96.50
57843;DHT22;43673;51.058;3.734;2023-02-28T21:38:54;3.70;96.40
57843;DHT22;43673;51.058;3.734;2023-02-28T21:41:21;3.80;96.40
57843;DHT22;43673;51.058;3.734;2023-02-28T21:43:49;3.70;96.50
57843;DHT22;43673;51.058;3.734;2023-02-28T21:46:18;3.90;96.60
57843;DHT22;43673;51.058;3.734;2023-02-28T21:48:44;3.80;96.80
57843;DHT22;43673;51.058;3.734;2023-02-28T21:51:17;3.60;97.00
57843;DHT22;43673;51.058;3.734;2023-02-28T21:53:43;3.60;97.00
57843;DHT22;43673;51.058;3.734;2023-02-28T21:56:21;3.80;97.10
57843;DHT22;43673;51.058;3.734;2023-02-28T21:59:03;3.70;97.10
57843;DHT22;43673;51.058;3.734;2023-02-28T22:01:33;3.70;97.10
57843;DHT22;43673;51.058;3.734;2023-02-28T22:04:02;3.70;97.10
57843;DHT22;43673;51.058;3.734;2023-02-28T22:06:31;3.80;97.50
57843;DHT22;43673;51.058;3.734;2023-02-28T22:09:03;3.70;97.60
57843;DHT22;43673;51.058;3.734;2023-02-28T22:11:31;3.70;98.00
57843;DHT22;43673;51.058;3.734;2023-02-28T22:13:57;3.70;98.20
57843;DHT22;43673;51.058;3.734;2023-02-28T22:16:25;3.70;98.30
57843;DHT22;43673;51.058;3.734;2023-02-28T22:18:52;3.60;98.40
57843;DHT22;43673;51.058;3.734;2023-02-28T22:21:22;3.60;98.60
57843;DHT22;43673;51.058;3.734;2023-02-28T22:23:51;3.60;98.90
57843;DHT22;43673;51.058;3.734;2023-02-28T22:26:21;3.60;99.10
57843;DHT22;43673;51.058;3.734;2023-02-28T22:28:47;3.40;99.50
57843;DHT22;43673;51.058;3.734;2023-02-28T22:33:48;3.60;99.90
57843;DHT22;43673;51.058;3.734;2023-02-28T22:36:21;3.60;99.90
57843;DHT22;43673;51.058;3.734;2023-02-28T22:38:51;3.60;99.90
57843;DHT22;43673;51.058;3.734;2023-02-28T22:41:21;3.60;99.90
57843;DHT22;43673;51.058;3.734;2023-02-28T22:43:56;3.60;99.90
57843;DHT22;43673;51.058;3.734;2023-02-28T22:46:23;3.70;99.90
57843;DHT22;43673;51.058;3.734;2023-02-28T22:48:50;3.60;99.90
57843;DHT22;43673;51.058;3.734;2023-02-28T22:51:22;3.70;99.90
57843;DHT22;43673;51.058;3.734;2023-02-28T22:53:50;3.60;99.90
57843;DHT22;43673;51.058;3.734;2023-02-28T22:56:18;3.80;99.90
57843;DHT22;43673;51.058;3.734;2023-02-28T22:59:05;3.60;99.90
57843;DHT22;43673;51.058;3.734;2023-02-28T23:01:32;3.70;99.90
57843;DHT22;43673;51.058;3.734;2023-02-28T23:04:01;3.70;99.90
57843;DHT22;43673;51.058;3.734;2023-02-28T23:06:31;3.60;99.90
57843;DHT22;43673;51.058;3.734;2023-02-28T23:09:03;3.60;99.90
57843;DHT22;43673;51.058;3.734;2023-02-28T23:11:35;3.60;99.90
57843;DHT22;43673;51.058;3.734;2023-02-28T23:14:01;3.60;99.90
57843;DHT22;43673;51.058;3.734;2023-02-28T23:16:31;3.60;99.90
57843;DHT22;43673;51.058;3.734;2023-02-28T23:19:02;3.70;99.90
57843;DHT22;43673;51.058;3.734;2023-02-28T23:21:30;3.60;99.90
57843;DHT22;43673;51.058;3.734;2023-02-28T23:23:56;3.60;99.90
57843;DHT22;43673;51.058;3.734;2023-02-28T23:26:22;3.60;99.90
57843;DHT22;43673;51.058;3.734;2023-02-28T23:28:48;3.50;99.90
57843;DHT22;43673;51.058;3.734;2023-02-28T23:36:22;3.50;99.90
57843;DHT22;43673;51.058;3.734;2023-02-28T23:38:51;3.50;99.90
57843;DHT22;43673;51.058;3.734;2023-02-28T23:41:22;3.50;99.90
57843;DHT22;43673;51.058;3.734;2023-02-28T23:43:50;3.50;99.90
57843;DHT22;43673;51.058;3.734;2023-02-28T23:46:19;3.50;99.90
57843;DHT22;43673;51.058;3.734;2023-02-28T23:56:39;3.50;99.90
57843;DHT22;43673;51.058;3.734;2023-02-28T23:59:05;3.50;99.90
